sensor_id;sensor_type;location;lat;lon;timestamp;P1;durP1;ratioP1;P2;durP2;ratioP2
13455;SDS011;6800;50.940;6.940;2024-01-16T00:01:13;11.97;;;9.67;;
13455;SDS011;6800;50.940;6.940;2024-01-16T00:05:16;10.53;;;9.43;;
13455;SDS011;6800;50.940;6.940;2024-01-16T00:09:17;11.53;;;10.33;;
13455;SDS011;6800;50.940;6.940;2024-01-16T00:13:19;14.80;;;11.00;;
13455;SDS011;6800;50.940;6.940;2024-01-16T00:17:24;13.67;;;10.57;;
13455;SDS011;6800;50.940;6.940;2024-01-16T00:21:25;11.33;;;10.23;;
13455;SDS011;6800;50.940;6.940;2024-01-16T00:25:27;13.10;;;10.53;;
13455;SDS011;6800;50.940;6.940;2024-01-16T00:29:29;13.77;;;11.03;;
13455;SDS011;6800;50.940;6.940;2024-01-16T00:33:32;12.93;;;11.50;;
13455;SDS011;6800;50.940;6.940;2024-01-16T00:37:37;16.73;;;10.27;;
13455;SDS011;6800;50.940;6.940;2024-01-16T00:41:40;15.63;;;10.47;;
13455;SDS011;6800;50.940;6.940;2024-01-16T00:45:41;12.90;;;11.00;;
13455;SDS011;6800;50.940;6.940;2024-01-16T00:49:43;15.73;;;10.63;;
13455;SDS011;6800;50.940;6.940;2024-01-16T00:53:44;15.00;;;12.07;;
13455;SDS011;6800;50.940;6.940;2024-01-16T00:57:46;12.93;;;11.50;;
13455;SDS011;6800;50.940;6.940;2024-01-16T01:01:50;13.47;;;11.13;;
13455;SDS011;6800;50.940;6.940;2024-01-16T01:05:54;15.80;;;11.50;;
13455;SDS011;6800;50.940;6.940;2024-01-16T01:09:55;12.33;;;11.13;;
13455;SDS011;6800;50.940;6.940;2024-01-16T01:13:57;16.30;;;11.00;;
13455;SDS011;6800;50.940;6.940;2024-01-16T01:17:59;14.30;;;11.17;;
13455;SDS011;6800;50.940;6.940;2024-01-16T01:22:00;12.83;;;11.17;;
13455;SDS011;6800;50.940;6.940;2024-01-16T01:26:06;16.83;;;10.60;;
13455;SDS011;6800;50.940;6.940;2024-01-16T01:30:08;15.03;;;10.10;;
13455;SDS011;6800;50.940;6.940;2024-01-16T01:34:14;13.70;;;9.83;;
13455;SDS011;6800;50.940;6.940;2024-01-16T01:38:16;12.27;;;9.33;;
13455;SDS011;6800;50.940;6.940;2024-01-16T01:42:22;12.43;;;9.27;;
13455;SDS011;6800;50.940;6.940;2024-01-16T01:46:26;10.67;;;9.60;;
13455;SDS011;6800;50.940;6.940;2024-01-16T01:50:29;12.97;;;8.77;;
13455;SDS011;6800;50.940;6.940;2024-01-16T01:54:31;12.87;;;8.87;;
13455;SDS011;6800;50.940;6.940;2024-01-16T01:58:37;12.60;;;9.03;;
13455;SDS011;6800;50.940;6.940;2024-01-16T02:02:40;11.37;;;9.73;;
13455;SDS011;6800;50.940;6.940;2024-01-16T02:06:43;14.20;;;10.00;;
13455;SDS011;6800;50.940;6.940;2024-01-16T02:10:47;15.30;;;11.13;;
13455;SDS011;6800;50.940;6.940;2024-01-16T02:14:53;12.77;;;10.60;;
13455;SDS011;6800;50.940;6.940;2024-01-16T02:18:54;13.90;;;11.47;;
13455;SDS011;6800;50.940;6.940;2024-01-16T02:22:58;14.93;;;11.27;;
13455;SDS011;6800;50.940;6.940;2024-01-16T02:27:04;16.03;;;12.27;;
13455;SDS011;6800;50.940;6.940;2024-01-16T02:31:07;15.83;;;12.20;;
13455;SDS011;6800;50.940;6.940;2024-01-16T02:35:09;18.87;;;12.97;;
13455;SDS011;6800;50.940;6.940;2024-01-16T02:39:12;13.37;;;11.93;;
13455;SDS011;6800;50.940;6.940;2024-01-16T02:43:14;12.20;;;10.63;;
13455;SDS011;6800;50.940;6.940;2024-01-16T02:47:17;11.90;;;10.67;;
13455;SDS011;6800;50.940;6.940;2024-01-16T02:51:21;20.90;;;10.70;;
13455;SDS011;6800;50.940;6.940;2024-01-16T02:55:22;17.97;;;10.23;;
13455;SDS011;6800;50.940;6.940;2024-01-16T02:59:24;14.20;;;10.43;;
13455;SDS011;6800;50.940;6.940;2024-01-16T03:03:27;17.97;;;9.87;;
13455;SDS011;6800;50.940;6.940;2024-01-16T03:07:30;12.13;;;10.20;;
13455;SDS011;6800;50.940;6.940;2024-01-16T03:11:32;14.80;;;10.70;;
13455;SDS011;6800;50.940;6.940;2024-01-16T03:15:34;15.77;;;9.83;;
13455;SDS011;6800;50.940;6.940;2024-01-16T03:19:36;14.00;;;10.43;;
13455;SDS011;6800;50.940;6.940;2024-01-16T03:23:41;15.10;;;11.03;;
13455;SDS011;6800;50.940;6.940;2024-01-16T03:27:43;12.70;;;10.93;;
13455;SDS011;6800;50.940;6.940;2024-01-16T03:31:47;13.80;;;10.30;;
13455;SDS011;6800;50.940;6.940;2024-01-16T03:35:50;15.27;;;11.73;;
13455;SDS011;6800;50.940;6.940;2024-01-16T03:39:51;15.43;;;11.10;;
13455;SDS011;6800;50.940;6.940;2024-01-16T03:43:53;17.10;;;10.73;;
13455;SDS011;6800;50.940;6.940;2024-01-16T03:47:58;13.37;;;10.80;;
13455;SDS011;6800;50.940;6.940;2024-01-16T03:52:01;15.43;;;11.27;;
13455;SDS011;6800;50.940;6.940;2024-01-16T03:56:03;15.07;;;13.00;;
13455;SDS011;6800;50.940;6.940;2024-01-16T04:00:06;16.20;;;12.47;;
13455;SDS011;6800;50.940;6.940;2024-01-16T04:04:08;19.13;;;11.93;;
13455;SDS011;6800;50.940;6.940;2024-01-16T04:08:11;15.83;;;12.27;;
13455;SDS011;6800;50.940;6.940;2024-01-16T04:12:13;15.87;;;13.57;;
13455;SDS011;6800;50.940;6.940;2024-01-16T04:16:15;19.17;;;12.77;;
13455;SDS011;6800;50.940;6.940;2024-01-16T04:20:17;15.67;;;13.17;;
13455;SDS011;6800;50.940;6.940;2024-01-16T04:24:18;14.77;;;12.53;;
13455;SDS011;6800;50.940;6.940;2024-01-16T04:28:20;15.97;;;13.07;;
13455;SDS011;6800;50.940;6.940;2024-01-16T04:32:23;19.73;;;12.67;;
13455;SDS011;6800;50.940;6.940;2024-01-16T04:36:25;14.47;;;13.07;;
13455;SDS011;6800;50.940;6.940;2024-01-16T04:40:30;13.77;;;12.37;;
13455;SDS011;6800;50.940;6.940;2024-01-16T04:44:32;15.53;;;11.73;;
13455;SDS011;6800;50.940;6.940;2024-01-16T04:48:34;13.10;;;11.27;;
13455;SDS011;6800;50.940;6.940;2024-01-16T04:52:36;12.53;;;10.30;;
13455;SDS011;6800;50.940;6.940;2024-01-16T04:56:37;15.80;;;10.03;;
13455;SDS011;6800;50.940;6.940;2024-01-16T05:00:41;15.47;;;9.00;;
13455;SDS011;6800;50.940;6.940;2024-01-16T05:04:43;17.87;;;9.77;;
13455;SDS011;6800;50.940;6.940;2024-01-16T05:08:44;15.30;;;10.00;;
13455;SDS011;6800;50.940;6.940;2024-01-16T05:12:46;11.07;;;8.27;;
13455;SDS011;6800;50.940;6.940;2024-01-16T05:16:48;13.93;;;8.20;;
13455;SDS011;6800;50.940;6.940;2024-01-16T05:20:50;13.70;;;7.93;;
13455;SDS011;6800;50.940;6.940;2024-01-16T05:24:52;11.37;;;8.20;;
13455;SDS011;6800;50.940;6.940;2024-01-16T05:28:53;15.20;;;7.60;;
13455;SDS011;6800;50.940;6.940;2024-01-16T05:32:55;11.93;;;8.83;;
13455;SDS011;6800;50.940;6.940;2024-01-16T05:36:57;13.73;;;8.60;;
13455;SDS011;6800;50.940;6.940;2024-01-16T05:40:58;12.70;;;8.17;;
13455;SDS011;6800;50.940;6.940;2024-01-16T05:45:00;12.77;;;8.97;;
13455;SDS011;6800;50.940;6.940;2024-01-16T05:49:02;13.87;;;8.83;;
13455;SDS011;6800;50.940;6.940;2024-01-16T05:53:05;11.80;;;8.73;;
13455;SDS011;6800;50.940;6.940;2024-01-16T05:57:07;12.63;;;9.53;;
13455;SDS011;6800;50.940;6.940;2024-01-16T06:01:08;15.50;;;9.47;;
13455;SDS011;6800;50.940;6.940;2024-01-16T06:05:10;15.53;;;9.07;;
13455;SDS011;6800;50.940;6.940;2024-01-16T06:09:13;11.93;;;8.30;;
13455;SDS011;6800;50.940;6.940;2024-01-16T06:13:17;14.80;;;9.80;;
13455;SDS011;6800;50.940;6.940;2024-01-16T06:17:27;13.80;;;8.37;;
13455;SDS011;6800;50.940;6.940;2024-01-16T06:21:29;13.07;;;8.83;;
13455;SDS011;6800;50.940;6.940;2024-01-16T06:25:37;11.67;;;7.80;;
13455;SDS011;6800;50.940;6.940;2024-01-16T06:29:39;11.40;;;7.97;;
13455;SDS011;6800;50.940;6.940;2024-01-16T06:33:41;15.80;;;8.30;;
13455;SDS011;6800;50.940;6.940;2024-01-16T06:37:43;14.10;;;8.20;;
13455;SDS011;6800;50.940;6.940;2024-01-16T06:41:44;12.67;;;8.00;;
13455;SDS011;6800;50.940;6.940;2024-01-16T06:45:46;14.03;;;7.10;;
13455;SDS011;6800;50.940;6.940;2024-01-16T06:49:48;10.83;;;7.90;;
13455;SDS011;6800;50.940;6.940;2024-01-16T06:53:50;10.90;;;7.30;;
13455;SDS011;6800;50.940;6.940;2024-01-16T06:57:53;13.27;;;6.87;;
13455;SDS011;6800;50.940;6.940;2024-01-16T07:01:56;13.53;;;7.00;;
13455;SDS011;6800;50.940;6.940;2024-01-16T07:06:01;9.23;;;6.63;;
13455;SDS011;6800;50.940;6.940;2024-01-16T07:10:06;10.80;;;6.53;;
13455;SDS011;6800;50.940;6.940;2024-01-16T07:14:19;10.17;;;6.23;;
13455;SDS011;6800;50.940;6.940;2024-01-16T07:18:23;9.97;;;6.27;;
13455;SDS011;6800;50.940;6.940;2024-01-16T07:22:24;10.20;;;6.43;;
13455;SDS011;6800;50.940;6.940;2024-01-16T07:26:26;17.53;;;6.80;;
13455;SDS011;6800;50.940;6.940;2024-01-16T07:30:27;10.90;;;5.90;;
13455;SDS011;6800;50.940;6.940;2024-01-16T07:34:29;12.37;;;6.43;;
13455;SDS011;6800;50.940;6.940;2024-01-16T07:38:33;8.87;;;5.80;;
13455;SDS011;6800;50.940;6.940;2024-01-16T07:42:35;10.83;;;5.30;;
13455;SDS011;6800;50.940;6.940;2024-01-16T07:46:37;10.57;;;5.80;;
13455;SDS011;6800;50.940;6.940;2024-01-16T07:50:39;9.93;;;6.43;;
13455;SDS011;6800;50.940;6.940;2024-01-16T07:54:43;9.90;;;5.90;;
13455;SDS011;6800;50.940;6.940;2024-01-16T07:58:48;9.90;;;6.27;;
13455;SDS011;6800;50.940;6.940;2024-01-16T08:02:49;8.67;;;5.10;;
13455;SDS011;6800;50.940;6.940;2024-01-16T08:06:53;9.90;;;6.00;;
13455;SDS011;6800;50.940;6.940;2024-01-16T08:10:56;8.53;;;5.20;;
13455;SDS011;6800;50.940;6.940;2024-01-16T08:14:59;8.23;;;6.03;;
13455;SDS011;6800;50.940;6.940;2024-01-16T08:19:02;10.37;;;5.57;;
13455;SDS011;6800;50.940;6.940;2024-01-16T08:23:04;13.60;;;5.60;;
13455;SDS011;6800;50.940;6.940;2024-01-16T08:27:06;13.90;;;5.70;;
13455;SDS011;6800;50.940;6.940;2024-01-16T08:31:08;13.17;;;5.97;;
13455;SDS011;6800;50.940;6.940;2024-01-16T08:35:10;9.33;;;5.20;;
13455;SDS011;6800;50.940;6.940;2024-01-16T08:39:12;12.67;;;5.50;;
13455;SDS011;6800;50.940;6.940;2024-01-16T08:43:13;6.27;;;4.50;;
13455;SDS011;6800;50.940;6.940;2024-01-16T08:47:15;12.57;;;5.10;;
13455;SDS011;6800;50.940;6.940;2024-01-16T08:51:16;7.20;;;4.50;;
13455;SDS011;6800;50.940;6.940;2024-01-16T08:55:18;6.93;;;4.50;;
13455;SDS011;6800;50.940;6.940;2024-01-16T08:59:20;12.97;;;4.93;;
13455;SDS011;6800;50.940;6.940;2024-01-16T09:03:22;10.37;;;5.50;;
13455;SDS011;6800;50.940;6.940;2024-01-16T09:07:26;13.10;;;4.67;;
13455;SDS011;6800;50.940;6.940;2024-01-16T09:11:29;8.30;;;4.43;;
13455;SDS011;6800;50.940;6.940;2024-01-16T09:15:31;7.77;;;4.33;;
13455;SDS011;6800;50.940;6.940;2024-01-16T09:19:36;10.40;;;4.37;;
13455;SDS011;6800;50.940;6.940;2024-01-16T09:23:37;7.57;;;4.30;;
13455;SDS011;6800;50.940;6.940;2024-01-16T09:27:40;9.77;;;4.93;;
13455;SDS011;6800;50.940;6.940;2024-01-16T09:31:42;10.00;;;5.07;;
13455;SDS011;6800;50.940;6.940;2024-01-16T09:35:44;7.53;;;4.90;;
13455;SDS011;6800;50.940;6.940;2024-01-16T09:39:46;8.77;;;4.90;;
13455;SDS011;6800;50.940;6.940;2024-01-16T09:43:50;8.33;;;5.90;;
13455;SDS011;6800;50.940;6.940;2024-01-16T09:47:53;9.13;;;4.90;;
13455;SDS011;6800;50.940;6.940;2024-01-16T09:51:56;9.33;;;4.93;;
13455;SDS011;6800;50.940;6.940;2024-01-16T09:56:02;10.30;;;5.30;;
13455;SDS011;6800;50.940;6.940;2024-01-16T10:00:06;8.73;;;5.10;;
13455;SDS011;6800;50.940;6.940;2024-01-16T10:04:12;13.83;;;5.03;;
13455;SDS011;6800;50.940;6.940;2024-01-16T10:08:16;31.67;;;7.23;;
13455;SDS011;6800;50.940;6.940;2024-01-16T10:12:17;8.33;;;4.93;;
13455;SDS011;6800;50.940;6.940;2024-01-16T10:16:20;9.33;;;5.10;;
13455;SDS011;6800;50.940;6.940;2024-01-16T10:20:32;33.90;;;5.27;;
13455;SDS011;6800;50.940;6.940;2024-01-16T10:24:35;7.27;;;4.40;;
13455;SDS011;6800;50.940;6.940;2024-01-16T10:28:40;17.97;;;5.10;;
13455;SDS011;6800;50.940;6.940;2024-01-16T10:32:45;9.30;;;4.60;;
13455;SDS011;6800;50.940;6.940;2024-01-16T10:36:49;10.70;;;4.07;;
13455;SDS011;6800;50.940;6.940;2024-01-16T10:41:06;23.97;;;6.30;;
13455;SDS011;6800;50.940;6.940;2024-01-16T10:45:17;6.03;;;3.77;;
13455;SDS011;6800;50.940;6.940;2024-01-16T10:49:23;22.03;;;4.97;;
13455;SDS011;6800;50.940;6.940;2024-01-16T10:53:34;9.73;;;4.70;;
13455;SDS011;6800;50.940;6.940;2024-01-16T10:57:36;9.93;;;4.13;;
13455;SDS011;6800;50.940;6.940;2024-01-16T11:01:42;14.90;;;4.90;;
13455;SDS011;6800;50.940;6.940;2024-01-16T11:05:46;23.10;;;13.03;;
13455;SDS011;6800;50.940;6.940;2024-01-16T11:09:49;12.13;;;6.13;;
13455;SDS011;6800;50.940;6.940;2024-01-16T11:13:51;22.43;;;5.57;;
13455;SDS011;6800;50.940;6.940;2024-01-16T11:17:55;26.73;;;5.30;;
13455;SDS011;6800;50.940;6.940;2024-01-16T11:21:58;15.87;;;5.10;;
13455;SDS011;6800;50.940;6.940;2024-01-16T11:26:24;40.67;;;7.47;;
13455;SDS011;6800;50.940;6.940;2024-01-16T11:30:35;31.53;;;6.47;;
13455;SDS011;6800;50.940;6.940;2024-01-16T11:38:43;9.20;;;3.90;;
13455;SDS011;6800;50.940;6.940;2024-01-16T11:42:48;6.60;;;5.33;;
13455;SDS011;6800;50.940;6.940;2024-01-16T11:47:00;7.10;;;4.63;;
13455;SDS011;6800;50.940;6.940;2024-01-16T11:51:36;6.20;;;4.37;;
13455;SDS011;6800;50.940;6.940;2024-01-16T12:03:46;9.30;;;4.03;;
13455;SDS011;6800;50.940;6.940;2024-01-16T12:07:49;8.67;;;4.53;;
13455;SDS011;6800;50.940;6.940;2024-01-16T12:11:56;7.50;;;5.07;;
13455;SDS011;6800;50.940;6.940;2024-01-16T12:16:03;5.93;;;4.90;;
13455;SDS011;6800;50.940;6.940;2024-01-16T12:20:16;10.70;;;5.17;;
13455;SDS011;6800;50.940;6.940;2024-01-16T12:24:21;7.23;;;4.87;;
13455;SDS011;6800;50.940;6.940;2024-01-16T12:28:22;7.23;;;4.33;;
13455;SDS011;6800;50.940;6.940;2024-01-16T12:32:33;6.30;;;5.10;;
13455;SDS011;6800;50.940;6.940;2024-01-16T12:36:35;8.03;;;4.57;;
13455;SDS011;6800;50.940;6.940;2024-01-16T12:40:41;11.63;;;6.10;;
13455;SDS011;6800;50.940;6.940;2024-01-16T12:44:47;11.87;;;6.53;;
13455;SDS011;6800;50.940;6.940;2024-01-16T12:48:49;7.87;;;5.27;;
13455;SDS011;6800;50.940;6.940;2024-01-16T12:57:09;7.80;;;5.53;;
13455;SDS011;6800;50.940;6.940;2024-01-16T13:01:25;6.77;;;4.77;;
13455;SDS011;6800;50.940;6.940;2024-01-16T13:05:40;14.63;;;5.97;;
13455;SDS011;6800;50.940;6.940;2024-01-16T13:09:42;16.37;;;5.53;;
13455;SDS011;6800;50.940;6.940;2024-01-16T13:13:48;9.17;;;6.40;;
13455;SDS011;6800;50.940;6.940;2024-01-16T13:17:50;15.47;;;6.03;;
13455;SDS011;6800;50.940;6.940;2024-01-16T13:21:52;10.20;;;5.77;;
13455;SDS011;6800;50.940;6.940;2024-01-16T13:25:56;10.30;;;4.90;;
13455;SDS011;6800;50.940;6.940;2024-01-16T13:30:00;8.63;;;5.20;;
13455;SDS011;6800;50.940;6.940;2024-01-16T13:34:04;10.50;;;5.97;;
13455;SDS011;6800;50.940;6.940;2024-01-16T13:38:06;11.30;;;5.80;;
13455;SDS011;6800;50.940;6.940;2024-01-16T13:42:09;10.73;;;5.87;;
13455;SDS011;6800;50.940;6.940;2024-01-16T13:46:12;10.57;;;6.73;;
13455;SDS011;6800;50.940;6.940;2024-01-16T13:50:23;10.90;;;7.67;;
13455;SDS011;6800;50.940;6.940;2024-01-16T13:54:26;9.77;;;5.63;;
13455;SDS011;6800;50.940;6.940;2024-01-16T13:58:28;6.53;;;5.90;;
13455;SDS011;6800;50.940;6.940;2024-01-16T14:02:30;8.57;;;4.97;;
13455;SDS011;6800;50.940;6.940;2024-01-16T14:06:31;7.53;;;5.83;;
13455;SDS011;6800;50.940;6.940;2024-01-16T14:10:55;8.07;;;5.97;;
13455;SDS011;6800;50.940;6.940;2024-01-16T14:14:57;14.03;;;7.00;;
13455;SDS011;6800;50.940;6.940;2024-01-16T14:19:01;8.97;;;6.20;;
13455;SDS011;6800;50.940;6.940;2024-01-16T14:23:03;5.90;;;5.30;;
13455;SDS011;6800;50.940;6.940;2024-01-16T14:27:05;10.93;;;5.63;;
13455;SDS011;6800;50.940;6.940;2024-01-16T14:31:08;14.37;;;6.13;;
13455;SDS011;6800;50.940;6.940;2024-01-16T14:35:12;10.43;;;6.63;;
13455;SDS011;6800;50.940;6.940;2024-01-16T14:39:15;15.97;;;6.60;;
13455;SDS011;6800;50.940;6.940;2024-01-16T14:43:23;6.80;;;5.97;;
13455;SDS011;6800;50.940;6.940;2024-01-16T14:47:25;9.53;;;6.20;;
13455;SDS011;6800;50.940;6.940;2024-01-16T14:51:26;10.23;;;6.80;;
13455;SDS011;6800;50.940;6.940;2024-01-16T14:55:29;13.70;;;6.13;;
13455;SDS011;6800;50.940;6.940;2024-01-16T14:59:30;10.37;;;6.67;;
13455;SDS011;6800;50.940;6.940;2024-01-16T15:03:32;15.33;;;9.90;;
13455;SDS011;6800;50.940;6.940;2024-01-16T15:07:36;8.57;;;6.60;;
13455;SDS011;6800;50.940;6.940;2024-01-16T15:11:39;9.87;;;6.63;;
13455;SDS011;6800;50.940;6.940;2024-01-16T15:15:41;8.47;;;6.60;;
13455;SDS011;6800;50.940;6.940;2024-01-16T15:19:44;8.67;;;7.00;;
13455;SDS011;6800;50.940;6.940;2024-01-16T15:23:46;11.90;;;6.33;;
13455;SDS011;6800;50.940;6.940;2024-01-16T15:27:48;13.87;;;7.23;;
13455;SDS011;6800;50.940;6.940;2024-01-16T15:31:55;11.10;;;6.87;;
13455;SDS011;6800;50.940;6.940;2024-01-16T15:35:57;9.50;;;6.80;;
13455;SDS011;6800;50.940;6.940;2024-01-16T15:39:59;8.63;;;6.63;;
13455;SDS011;6800;50.940;6.940;2024-01-16T15:44:01;10.40;;;7.47;;
13455;SDS011;6800;50.940;6.940;2024-01-16T15:48:12;8.67;;;5.70;;
13455;SDS011;6800;50.940;6.940;2024-01-16T15:52:14;11.40;;;7.30;;
13455;SDS011;6800;50.940;6.940;2024-01-16T15:56:16;10.87;;;6.67;;
13455;SDS011;6800;50.940;6.940;2024-01-16T16:00:20;7.93;;;5.83;;
13455;SDS011;6800;50.940;6.940;2024-01-16T16:04:23;11.43;;;7.70;;
13455;SDS011;6800;50.940;6.940;2024-01-16T16:08:25;11.87;;;9.47;;
13455;SDS011;6800;50.940;6.940;2024-01-16T16:12:27;27.73;;;15.10;;
13455;SDS011;6800;50.940;6.940;2024-01-16T16:16:30;19.70;;;11.93;;
13455;SDS011;6800;50.940;6.940;2024-01-16T16:20:36;13.17;;;8.43;;
13455;SDS011;6800;50.940;6.940;2024-01-16T16:25:01;8.77;;;6.40;;
13455;SDS011;6800;50.940;6.940;2024-01-16T16:29:06;8.90;;;6.77;;
13455;SDS011;6800;50.940;6.940;2024-01-16T16:33:10;9.40;;;7.07;;
13455;SDS011;6800;50.940;6.940;2024-01-16T16:37:13;11.23;;;7.20;;
13455;SDS011;6800;50.940;6.940;2024-01-16T16:41:15;8.83;;;6.80;;
13455;SDS011;6800;50.940;6.940;2024-01-16T16:45:18;11.90;;;7.00;;
13455;SDS011;6800;50.940;6.940;2024-01-16T16:49:20;13.63;;;7.87;;
13455;SDS011;6800;50.940;6.940;2024-01-16T16:53:21;14.00;;;8.23;;
13455;SDS011;6800;50.940;6.940;2024-01-16T16:57:31;9.80;;;7.27;;
13455;SDS011;6800;50.940;6.940;2024-01-16T17:01:35;7.77;;;7.07;;
13455;SDS011;6800;50.940;6.940;2024-01-16T17:05:40;10.07;;;7.70;;
13455;SDS011;6800;50.940;6.940;2024-01-16T17:09:42;8.80;;;7.90;;
13455;SDS011;6800;50.940;6.940;2024-01-16T17:13:44;11.97;;;8.27;;
13455;SDS011;6800;50.940;6.940;2024-01-16T17:17:49;11.50;;;7.80;;
13455;SDS011;6800;50.940;6.940;2024-01-16T17:21:53;13.27;;;8.17;;
13455;SDS011;6800;50.940;6.940;2024-01-16T17:25:55;11.33;;;7.77;;
13455;SDS011;6800;50.940;6.940;2024-01-16T17:29:59;13.60;;;7.93;;
13455;SDS011;6800;50.940;6.940;2024-01-16T17:34:02;13.33;;;8.60;;
13455;SDS011;6800;50.940;6.940;2024-01-16T17:38:04;11.60;;;7.63;;
13455;SDS011;6800;50.940;6.940;2024-01-16T17:42:08;10.13;;;7.40;;
13455;SDS011;6800;50.940;6.940;2024-01-16T17:46:12;8.40;;;7.20;;
13455;SDS011;6800;50.940;6.940;2024-01-16T17:50:13;11.30;;;8.40;;
13455;SDS011;6800;50.940;6.940;2024-01-16T17:54:15;14.90;;;7.63;;
13455;SDS011;6800;50.940;6.940;2024-01-16T17:58:17;12.80;;;7.53;;
13455;SDS011;6800;50.940;6.940;2024-01-16T18:02:23;11.20;;;8.57;;
13455;SDS011;6800;50.940;6.940;2024-01-16T18:06:25;12.73;;;8.10;;
13455;SDS011;6800;50.940;6.940;2024-01-16T18:10:28;10.97;;;7.90;;
13455;SDS011;6800;50.940;6.940;2024-01-16T18:14:31;10.37;;;7.70;;
13455;SDS011;6800;50.940;6.940;2024-01-16T18:18:34;13.53;;;8.50;;
13455;SDS011;6800;50.940;6.940;2024-01-16T18:22:38;17.97;;;8.93;;
13455;SDS011;6800;50.940;6.940;2024-01-16T18:26:45;12.03;;;8.83;;
13455;SDS011;6800;50.940;6.940;2024-01-16T18:30:49;9.53;;;8.37;;
13455;SDS011;6800;50.940;6.940;2024-01-16T18:34:53;12.13;;;8.77;;
13455;SDS011;6800;50.940;6.940;2024-01-16T18:38:55;12.83;;;9.00;;
13455;SDS011;6800;50.940;6.940;2024-01-16T18:42:57;10.87;;;8.70;;
13455;SDS011;6800;50.940;6.940;2024-01-16T18:46:58;9.67;;;8.53;;
13455;SDS011;6800;50.940;6.940;2024-01-16T18:51:08;11.83;;;8.93;;
13455;SDS011;6800;50.940;6.940;2024-01-16T18:55:13;9.07;;;8.17;;
13455;SDS011;6800;50.940;6.940;2024-01-16T18:59:19;12.57;;;9.47;;
13455;SDS011;6800;50.940;6.940;2024-01-16T19:03:23;10.70;;;8.57;;
13455;SDS011;6800;50.940;6.940;2024-01-16T19:07:25;12.40;;;8.70;;
13455;SDS011;6800;50.940;6.940;2024-01-16T19:11:27;16.43;;;9.90;;
13455;SDS011;6800;50.940;6.940;2024-01-16T19:15:31;10.27;;;8.80;;
13455;SDS011;6800;50.940;6.940;2024-01-16T19:19:34;8.33;;;7.20;;
13455;SDS011;6800;50.940;6.940;2024-01-16T19:23:36;12.00;;;8.77;;
13455;SDS011;6800;50.940;6.940;2024-01-16T19:27:38;11.27;;;8.83;;
13455;SDS011;6800;50.940;6.940;2024-01-16T19:31:44;13.63;;;9.13;;
13455;SDS011;6800;50.940;6.940;2024-01-16T19:35:47;11.73;;;7.90;;
13455;SDS011;6800;50.940;6.940;2024-01-16T19:39:49;10.13;;;8.53;;
13455;SDS011;6800;50.940;6.940;2024-01-16T19:43:51;9.83;;;8.27;;
13455;SDS011;6800;50.940;6.940;2024-01-16T19:47:52;10.40;;;9.23;;
13455;SDS011;6800;50.940;6.940;2024-01-16T19:51:55;11.90;;;8.90;;
13455;SDS011;6800;50.940;6.940;2024-01-16T19:55:59;13.53;;;11.23;;
13455;SDS011;6800;50.940;6.940;2024-01-16T20:00:06;12.70;;;9.83;;
13455;SDS011;6800;50.940;6.940;2024-01-16T20:04:12;10.70;;;8.20;;
13455;SDS011;6800;50.940;6.940;2024-01-16T20:08:14;9.97;;;8.73;;
13455;SDS011;6800;50.940;6.940;2024-01-16T20:12:17;10.70;;;9.50;;
13455;SDS011;6800;50.940;6.940;2024-01-16T20:16:39;11.30;;;9.37;;
13455;SDS011;6800;50.940;6.940;2024-01-16T20:20:41;12.60;;;9.40;;
13455;SDS011;6800;50.940;6.940;2024-01-16T20:24:43;11.20;;;8.97;;
13455;SDS011;6800;50.940;6.940;2024-01-16T20:28:45;14.20;;;9.90;;
13455;SDS011;6800;50.940;6.940;2024-01-16T20:32:48;13.17;;;9.70;;
13455;SDS011;6800;50.940;6.940;2024-01-16T20:36:55;17.47;;;11.30;;
13455;SDS011;6800;50.940;6.940;2024-01-16T20:40:56;12.13;;;10.03;;
13455;SDS011;6800;50.940;6.940;2024-01-16T20:44:58;13.07;;;10.37;;
13455;SDS011;6800;50.940;6.940;2024-01-16T20:49:01;11.07;;;9.97;;
13455;SDS011;6800;50.940;6.940;2024-01-16T20:53:05;13.33;;;10.03;;
13455;SDS011;6800;50.940;6.940;2024-01-16T20:57:07;16.80;;;11.60;;
13455;SDS011;6800;50.940;6.940;2024-01-16T21:01:12;14.53;;;10.43;;
13455;SDS011;6800;50.940;6.940;2024-01-16T21:05:15;13.30;;;10.03;;
13455;SDS011;6800;50.940;6.940;2024-01-16T21:09:18;13.60;;;10.00;;
13455;SDS011;6800;50.940;6.940;2024-01-16T21:13:22;15.03;;;11.20;;
13455;SDS011;6800;50.940;6.940;2024-01-16T21:17:27;14.60;;;9.73;;
13455;SDS011;6800;50.940;6.940;2024-01-16T21:21:30;12.00;;;10.63;;
13455;SDS011;6800;50.940;6.940;2024-01-16T21:25:32;13.40;;;10.20;;
13455;SDS011;6800;50.940;6.940;2024-01-16T21:29:35;12.23;;;10.17;;
13455;SDS011;6800;50.940;6.940;2024-01-16T21:33:36;13.03;;;9.97;;
13455;SDS011;6800;50.940;6.940;2024-01-16T21:37:39;13.30;;;10.27;;
13455;SDS011;6800;50.940;6.940;2024-01-16T21:41:40;14.07;;;10.87;;
13455;SDS011;6800;50.940;6.940;2024-01-16T21:45:44;12.57;;;10.80;;
13455;SDS011;6800;50.940;6.940;2024-01-16T21:49:46;12.63;;;11.20;;
13455;SDS011;6800;50.940;6.940;2024-01-16T21:53:53;13.87;;;9.53;;
13455;SDS011;6800;50.940;6.940;2024-01-16T21:57:55;13.87;;;11.23;;
13455;SDS011;6800;50.940;6.940;2024-01-16T22:01:57;12.83;;;11.20;;
13455;SDS011;6800;50.940;6.940;2024-01-16T22:05:59;12.57;;;10.33;;
13455;SDS011;6800;50.940;6.940;2024-01-16T22:10:02;14.23;;;10.97;;
13455;SDS011;6800;50.940;6.940;2024-01-16T22:14:08;14.53;;;12.77;;
13455;SDS011;6800;50.940;6.940;2024-01-16T22:18:09;16.13;;;14.33;;
13455;SDS011;6800;50.940;6.940;2024-01-16T22:22:11;16.10;;;12.70;;
13455;SDS011;6800;50.940;6.940;2024-01-16T22:26:13;19.00;;;14.60;;
13455;SDS011;6800;50.940;6.940;2024-01-16T22:30:16;16.20;;;12.03;;
13455;SDS011;6800;50.940;6.940;2024-01-16T22:34:18;14.50;;;12.17;;
13455;SDS011;6800;50.940;6.940;2024-01-16T22:38:20;19.73;;;14.17;;
13455;SDS011;6800;50.940;6.940;2024-01-16T22:42:22;22.70;;;12.47;;
13455;SDS011;6800;50.940;6.940;2024-01-16T22:46:25;15.97;;;12.70;;
13455;SDS011;6800;50.940;6.940;2024-01-16T22:50:30;14.87;;;11.80;;
13455;SDS011;6800;50.940;6.940;2024-01-16T22:54:32;14.53;;;12.37;;
13455;SDS011;6800;50.940;6.940;2024-01-16T22:58:34;17.80;;;11.67;;
13455;SDS011;6800;50.940;6.940;2024-01-16T23:02:36;14.53;;;11.50;;
13455;SDS011;6800;50.940;6.940;2024-01-16T23:06:37;14.90;;;13.07;;
13455;SDS011;6800;50.940;6.940;2024-01-16T23:10:41;15.33;;;12.20;;
13455;SDS011;6800;50.940;6.940;2024-01-16T23:14:43;15.37;;;11.93;;
13455;SDS011;6800;50.940;6.940;2024-01-16T23:18:45;14.47;;;12.00;;
13455;SDS011;6800;50.940;6.940;2024-01-16T23:22:48;14.17;;;12.63;;
13455;SDS011;6800;50.940;6.940;2024-01-16T23:26:51;15.57;;;11.93;;
13455;SDS011;6800;50.940;6.940;2024-01-16T23:30:54;14.27;;;11.37;;
13455;SDS011;6800;50.940;6.940;2024-01-16T23:34:57;13.03;;;11.47;;
13455;SDS011;6800;50.940;6.940;2024-01-16T23:38:59;15.27;;;11.77;;
13455;SDS011;6800;50.940;6.940;2024-01-16T23:43:06;14.27;;;12.20;;
13455;SDS011;6800;50.940;6.940;2024-01-16T23:47:14;17.40;;;12.40;;
13455;SDS011;6800;50.940;6.940;2024-01-16T23:51:17;16.83;;;13.70;;
13455;SDS011;6800;50.940;6.940;2024-01-16T23:55:20;14.73;;;11.60;;
13455;SDS011;6800;50.940;6.940;2024-01-16T23:59:22;14.20;;;12.70;;
